createdAt,value
2022-11-02T00:00:07.155Z,37.2
2022-11-02T00:05:09.337Z,38.6
2022-11-02T00:10:06.903Z,46.8
2022-11-02T00:15:06.933Z,34.9
2022-11-02T00:20:07.128Z,39.2
2022-11-02T00:25:07.179Z,40.6
2022-11-02T00:30:07.041Z,50.4
2022-11-02T00:35:06.967Z,36.2
2022-11-02T00:40:07.130Z,32.1
2022-11-02T00:45:07.147Z,44
2022-11-02T00:50:07.182Z,38
2022-11-02T00:55:07.057Z,62.1
2022-11-02T01:00:07.553Z,48.6
2022-11-02T01:05:07.217Z,49.8
2022-11-02T01:10:06.648Z,43.5
2022-11-02T01:15:06.640Z,36.9
2022-11-02T01:20:06.479Z,37
2022-11-02T01:25:06.350Z,30
2022-11-02T01:30:06.391Z,16.8
2022-11-02T01:35:06.255Z,29.6
2022-11-02T01:40:06.596Z,24.2
2022-11-02T01:45:06.517Z,39.3
2022-11-02T01:50:06.531Z,24.9
2022-11-02T01:55:06.442Z,25.9
2022-11-02T02:00:06.561Z,34.2
2022-11-02T02:05:07.087Z,36.8
2022-11-02T02:10:06.429Z,35.2
2022-11-02T02:15:06.393Z,40.9
2022-11-02T02:20:07.163Z,26.2
2022-11-02T02:25:06.378Z,20.8
2022-11-02T02:30:06.460Z,24.9
2022-11-02T02:35:06.427Z,30.7
2022-11-02T02:40:06.755Z,30.9
2022-11-02T02:45:06.667Z,24.5
2022-11-02T02:50:07.007Z,23.3
2022-11-02T02:55:06.673Z,17.4
2022-11-02T03:00:06.454Z,17.1
2022-11-02T03:05:07.036Z,16.7
2022-11-02T03:10:07.054Z,22.2
2022-11-02T03:15:06.312Z,16.8
2022-11-02T03:20:07.123Z,35.3
2022-11-02T03:25:07.081Z,17.2
2022-11-02T03:30:06.953Z,21.7
2022-11-02T03:35:06.448Z,26.7
2022-11-02T03:40:06.809Z,19.9
2022-11-02T03:45:06.413Z,17.7
2022-11-02T03:50:06.991Z,26.1
2022-11-02T03:55:06.950Z,19.3
2022-11-02T04:00:06.540Z,24.7
2022-11-02T04:05:06.255Z,16.9
2022-11-02T04:10:06.939Z,25.1
2022-11-02T04:15:06.886Z,13
2022-11-02T04:20:06.914Z,26.6
2022-11-02T04:25:06.853Z,36.1
2022-11-02T04:30:06.934Z,14.6
2022-11-02T04:35:06.931Z,23.7
2022-11-02T04:40:07.121Z,26.2
2022-11-02T04:45:07.150Z,18.1
2022-11-02T04:50:07.165Z,32.2
2022-11-02T04:55:07.120Z,13.6
2022-11-02T05:00:07.220Z,21.4
2022-11-02T05:05:06.645Z,17.7
2022-11-02T05:10:06.752Z,15
2022-11-02T05:15:06.633Z,23.7
2022-11-02T05:20:06.798Z,23.6
2022-11-02T05:25:06.917Z,20.5
2022-11-02T05:30:07.035Z,18.2
2022-11-02T05:35:07.052Z,22.5
2022-11-02T05:40:06.999Z,14.1
2022-11-02T05:45:07.053Z,14.9
2022-11-02T05:50:07.115Z,18.4
2022-11-02T05:55:07.109Z,26.6
2022-11-02T06:00:06.334Z,20.5
2022-11-02T06:05:06.898Z,17.8
2022-11-02T06:10:07.060Z,38.7
2022-11-02T06:15:06.983Z,39.7
2022-11-02T06:20:07.189Z,23.8
2022-11-02T06:25:07.285Z,35.3
2022-11-02T06:30:07.183Z,42.7
2022-11-02T06:35:07.230Z,38.3
2022-11-02T06:40:07.086Z,39.9
2022-11-02T06:45:07.077Z,26.1
2022-11-02T06:50:07.169Z,34.8
2022-11-02T06:55:06.207Z,28.6
2022-11-02T07:00:06.422Z,25.6
2022-11-02T07:05:07.025Z,28.2
2022-11-02T07:10:07.140Z,43
2022-11-02T07:15:07.241Z,16.1
2022-11-02T07:20:07.198Z,30.4
2022-11-02T07:25:06.235Z,33.7
2022-11-02T07:30:06.259Z,20.4
2022-11-02T07:35:06.231Z,28.1
2022-11-02T07:40:06.451Z,20.1
2022-11-02T07:45:06.879Z,56.5
2022-11-02T07:50:06.974Z,32.6
2022-11-02T07:55:06.971Z,28.3
2022-11-02T08:00:07.121Z,26.3
2022-11-02T08:05:06.644Z,49.3
2022-11-02T08:10:07.179Z,29.3
2022-11-02T08:15:06.288Z,27.1
2022-11-02T08:20:06.315Z,25.8
2022-11-02T08:25:06.336Z,28.3
2022-11-02T08:30:06.282Z,26.2
2022-11-02T08:35:07.167Z,23.2
2022-11-02T08:40:06.282Z,18.7
2022-11-02T08:45:07.260Z,22.9
2022-11-02T08:50:07.128Z,18.8
2022-11-02T08:55:07.074Z,30.5
2022-11-02T09:00:07.012Z,32.1
2022-11-02T09:05:06.486Z,33.1
2022-11-02T09:10:06.632Z,21
2022-11-02T09:15:06.706Z,39
2022-11-02T09:20:06.603Z,29.6
2022-11-02T09:25:06.550Z,43.7
2022-11-02T09:30:06.486Z,32.4
2022-11-02T09:35:06.554Z,36.5
2022-11-02T09:40:06.584Z,27.9
2022-11-02T09:45:06.847Z,28
2022-11-02T09:50:06.578Z,31.6
2022-11-02T09:55:06.271Z,19
2022-11-02T10:00:06.844Z,17.1
2022-11-02T10:05:06.413Z,14.6
2022-11-02T10:10:07.038Z,22.5
2022-11-02T10:15:06.786Z,26.6
2022-11-02T10:20:06.567Z,19.3
2022-11-02T10:25:06.612Z,21.7
2022-11-02T10:30:06.798Z,27.6
2022-11-02T10:35:06.614Z,25.4
2022-11-02T10:40:07.178Z,24.8
2022-11-02T10:45:06.236Z,21.1
2022-11-02T10:50:06.365Z,22.8
2022-11-02T10:55:06.974Z,27.5
2022-11-02T11:00:06.436Z,25.6
2022-11-02T11:05:06.847Z,24.1
2022-11-02T11:10:07.227Z,13.4
2022-11-02T11:15:06.324Z,16.3
2022-11-02T11:20:06.416Z,17.1
2022-11-02T11:25:06.769Z,29.4
2022-11-02T11:30:06.771Z,32.3
2022-11-02T11:35:07.152Z,23.9
2022-11-02T11:40:06.319Z,22.4
2022-11-02T11:45:06.262Z,17.6
2022-11-02T11:50:07.144Z,17.7
2022-11-02T11:55:06.980Z,17.1
2022-11-02T12:00:07.070Z,33.4
2022-11-02T12:05:06.735Z,13.3
2022-11-02T12:10:06.630Z,30.3
2022-11-02T12:15:06.309Z,17.5
2022-11-02T12:20:06.764Z,15.8
2022-11-02T12:25:06.525Z,18.8
2022-11-02T12:30:07.073Z,19.7
2022-11-02T12:35:07.035Z,11.6
2022-11-02T12:40:07.219Z,15.6
2022-11-02T12:45:06.294Z,13.9
2022-11-02T12:50:06.825Z,13.5
2022-11-02T12:55:06.327Z,12.7
2022-11-02T13:00:07.297Z,24.8
2022-11-02T13:05:06.423Z,20.2
2022-11-02T13:10:06.791Z,16.2
2022-11-02T13:15:07.191Z,17
2022-11-02T13:20:06.850Z,13.1
2022-11-02T13:25:06.552Z,15.4
2022-11-02T13:30:07.160Z,16.2
2022-11-02T13:35:07.238Z,29.4
2022-11-02T13:40:06.330Z,36.4
2022-11-02T13:50:07.111Z,62.5
2022-11-02T13:55:06.659Z,14.9
2022-11-02T14:00:06.683Z,12.8
2022-11-02T14:05:07.043Z,45
2022-11-02T14:10:07.232Z,28.4
2022-11-02T14:15:06.507Z,16.1
2022-11-02T14:20:06.726Z,31.7
2022-11-02T14:25:06.372Z,11.4
2022-11-02T14:30:06.604Z,17.1
2022-11-02T14:35:06.391Z,20.7
2022-11-02T14:40:07.088Z,21.5
2022-11-02T14:45:06.617Z,23.3
2022-11-02T14:50:06.986Z,17.7
2022-11-02T14:55:07.141Z,11.7
2022-11-02T15:00:07.294Z,45.4
2022-11-02T15:05:06.238Z,43.2
2022-11-02T15:10:06.799Z,22.5
2022-11-02T15:15:06.635Z,25.4
2022-11-02T15:20:06.712Z,16.3
2022-11-02T15:25:06.629Z,15.5
2022-11-02T15:30:07.099Z,33.6
2022-11-02T15:35:06.923Z,46.3
2022-11-02T15:40:07.191Z,37
2022-11-02T15:45:06.232Z,41.5
2022-11-02T15:50:06.763Z,27.9
2022-11-02T15:55:06.313Z,21.7
2022-11-02T16:00:07.119Z,25.1
2022-11-02T16:05:06.615Z,26
2022-11-02T16:10:07.033Z,37.8
2022-11-02T16:15:06.269Z,34.5
2022-11-02T16:20:07.241Z,22.9
2022-11-02T16:25:06.957Z,33.7
2022-11-02T16:30:06.353Z,21.7
2022-11-02T16:35:06.375Z,26
2022-11-02T16:40:06.627Z,23
2022-11-02T16:45:06.748Z,28.9
2022-11-02T16:50:07.053Z,37.1
2022-11-02T16:55:06.965Z,25
2022-11-02T17:00:07.254Z,21.5
2022-11-02T17:05:06.811Z,27.7
2022-11-02T17:10:06.775Z,20
2022-11-02T17:15:07.167Z,23.7
2022-11-02T17:20:07.193Z,15.7
2022-11-02T17:25:06.238Z,25
2022-11-02T17:30:06.372Z,27.7
2022-11-02T17:35:06.381Z,23.7
2022-11-02T17:40:06.443Z,14
2022-11-02T17:45:06.393Z,14.7
2022-11-02T17:50:06.469Z,21.4
2022-11-02T17:55:06.584Z,28.5
2022-11-02T18:00:06.593Z,20.7
2022-11-02T18:05:06.266Z,28.4
2022-11-02T18:10:06.388Z,30.9
2022-11-02T18:15:07.084Z,27.6
2022-11-02T18:20:06.946Z,22.3
2022-11-02T18:25:07.207Z,23.8
2022-11-02T18:30:06.295Z,32.5
2022-11-02T18:35:06.342Z,33
2022-11-02T18:40:06.465Z,40.9
2022-11-02T18:45:07.093Z,30.1
2022-11-02T18:50:07.206Z,32
2022-11-02T18:55:06.218Z,40.8
2022-11-02T19:00:06.335Z,36.2
2022-11-02T19:05:07.027Z,37.2
2022-11-02T19:10:06.934Z,40.7
2022-11-02T19:15:06.992Z,30.4
2022-11-02T19:20:06.876Z,40.9
2022-11-02T19:25:06.908Z,31.5
2022-11-02T19:30:06.847Z,39.5
2022-11-02T19:35:07.082Z,37.6
2022-11-02T19:40:06.254Z,60.4
2022-11-02T19:45:07.241Z,53.5
2022-11-02T19:50:06.381Z,41
2022-11-02T19:55:06.270Z,45.5
2022-11-02T20:00:07.331Z,54
2022-11-02T20:05:06.818Z,54
2022-11-02T20:10:06.887Z,52.7
2022-11-02T20:15:06.938Z,68
2022-11-02T20:20:06.985Z,56.6
2022-11-02T20:25:07.104Z,63.1
2022-11-02T20:30:06.631Z,71.4
2022-11-02T20:35:06.787Z,80
2022-11-02T20:40:06.893Z,62.6
2022-11-02T20:45:06.595Z,74.8
2022-11-02T20:50:06.667Z,70.9
2022-11-02T20:55:06.772Z,71.1
2022-11-02T21:00:06.808Z,65.2
2022-11-02T21:05:06.316Z,67.9
2022-11-02T21:10:06.407Z,92.7
2022-11-02T21:15:06.484Z,65.2
2022-11-02T21:20:06.458Z,70.8
2022-11-02T21:25:06.389Z,70.4
2022-11-02T21:30:06.405Z,87
2022-11-02T21:35:06.454Z,87
2022-11-02T21:40:06.591Z,95.2
2022-11-02T21:45:06.568Z,92
2022-11-02T21:50:06.587Z,79.5
2022-11-02T21:55:06.563Z,66.1
2022-11-02T22:00:06.641Z,78.4
2022-11-02T22:05:06.282Z,81.2
2022-11-02T22:10:07.226Z,98
2022-11-02T22:15:06.451Z,79.8
2022-11-02T22:20:06.940Z,88.6
2022-11-02T22:25:06.978Z,78.5
2022-11-02T22:30:07.016Z,80.9
2022-11-02T22:35:07.015Z,81.7
2022-11-02T22:40:06.335Z,78.5
2022-11-02T22:45:07.159Z,79.3
2022-11-02T22:50:07.237Z,83.8
2022-11-02T22:55:06.262Z,96.9
2022-11-02T23:00:06.425Z,118.1
2022-11-02T23:05:07.275Z,107.2
2022-11-02T23:10:07.003Z,96
2022-11-02T23:15:06.727Z,120.7
2022-11-02T23:20:07.078Z,128.2
2022-11-02T23:25:06.917Z,110.7
2022-11-02T23:30:07.147Z,96.6
2022-11-02T23:35:06.928Z,116.5
2022-11-02T23:40:06.846Z,98.8
2022-11-02T23:45:07.175Z,122.9
2022-11-02T23:50:06.782Z,112.7
2022-11-02T23:55:07.103Z,96.9
